sensor_id;sensor_type;location;lat;lon;timestamp;temperature;humidity
21770;DHT22;11046;49.558;8.674;2023-09-12T00:02:21;19.30;86.10
21770;DHT22;11046;49.558;8.674;2023-09-12T00:05:21;19.30;86.90
21770;DHT22;11046;49.558;8.674;2023-09-12T00:08:22;19.20;86.80
21770;DHT22;11046;49.558;8.674;2023-09-12T00:11:23;19.10;87.10
21770;DHT22;11046;49.558;8.674;2023-09-12T00:14:25;19.00;87.60
21770;DHT22;11046;49.558;8.674;2023-09-12T00:17:26;18.90;88.10
21770;DHT22;11046;49.558;8.674;2023-09-12T00:20:28;18.80;88.60
21770;DHT22;11046;49.558;8.674;2023-09-12T00:23:28;18.70;89.10
21770;DHT22;11046;49.558;8.674;2023-09-12T00:26:29;18.60;89.30
21770;DHT22;11046;49.558;8.674;2023-09-12T00:29:31;18.50;89.60
21770;DHT22;11046;49.558;8.674;2023-09-12T00:32:34;18.40;90.10
21770;DHT22;11046;49.558;8.674;2023-09-12T00:35:35;18.40;90.30
21770;DHT22;11046;49.558;8.674;2023-09-12T00:38:36;18.40;90.10
21770;DHT22;11046;49.558;8.674;2023-09-12T00:41:37;18.40;90.10
21770;DHT22;11046;49.558;8.674;2023-09-12T00:44:38;18.50;90.30
21770;DHT22;11046;49.558;8.674;2023-09-12T00:47:39;18.50;90.30
21770;DHT22;11046;49.558;8.674;2023-09-12T00:50:41;18.40;90.40
21770;DHT22;11046;49.558;8.674;2023-09-12T00:53:43;18.40;90.40
21770;DHT22;11046;49.558;8.674;2023-09-12T00:56:44;18.40;90.50
21770;DHT22;11046;49.558;8.674;2023-09-12T00:59:45;18.40;90.60
21770;DHT22;11046;49.558;8.674;2023-09-12T01:02:46;18.30;90.70
21770;DHT22;11046;49.558;8.674;2023-09-12T01:05:47;18.30;90.90
21770;DHT22;11046;49.558;8.674;2023-09-12T01:08:50;18.20;91.10
21770;DHT22;11046;49.558;8.674;2023-09-12T01:11:51;18.20;91.30
21770;DHT22;11046;49.558;8.674;2023-09-12T01:14:52;18.20;91.40
21770;DHT22;11046;49.558;8.674;2023-09-12T01:17:53;18.20;91.30
21770;DHT22;11046;49.558;8.674;2023-09-12T01:27:42;18.00;92.30
21770;DHT22;11046;49.558;8.674;2023-09-12T01:30:45;17.90;91.90
21770;DHT22;11046;49.558;8.674;2023-09-12T01:33:48;18.00;92.10
21770;DHT22;11046;49.558;8.674;2023-09-12T01:36:49;18.00;92.10
21770;DHT22;11046;49.558;8.674;2023-09-12T01:39:50;18.00;92.20
21770;DHT22;11046;49.558;8.674;2023-09-12T01:42:52;18.00;92.20
21770;DHT22;11046;49.558;8.674;2023-09-12T01:45:55;17.90;92.30
21770;DHT22;11046;49.558;8.674;2023-09-12T01:48:56;17.90;92.60
21770;DHT22;11046;49.558;8.674;2023-09-12T01:51:58;17.80;92.60
21770;DHT22;11046;49.558;8.674;2023-09-12T01:55:00;17.80;92.80
21770;DHT22;11046;49.558;8.674;2023-09-12T01:58:03;17.70;92.90
21770;DHT22;11046;49.558;8.674;2023-09-12T02:01:04;17.80;92.90
21770;DHT22;11046;49.558;8.674;2023-09-12T02:04:05;17.90;92.80
21770;DHT22;11046;49.558;8.674;2023-09-12T02:07:09;18.00;92.60
21770;DHT22;11046;49.558;8.674;2023-09-12T02:10:09;18.20;92.40
21770;DHT22;11046;49.558;8.674;2023-09-12T02:13:10;18.30;92.20
21770;DHT22;11046;49.558;8.674;2023-09-12T02:16:11;18.30;92.10
21770;DHT22;11046;49.558;8.674;2023-09-12T02:19:12;18.30;92.10
21770;DHT22;11046;49.558;8.674;2023-09-12T02:22:13;18.20;92.10
21770;DHT22;11046;49.558;8.674;2023-09-12T02:25:13;18.20;92.20
21770;DHT22;11046;49.558;8.674;2023-09-12T02:28:14;18.30;92.20
21770;DHT22;11046;49.558;8.674;2023-09-12T02:31:15;18.20;92.50
21770;DHT22;11046;49.558;8.674;2023-09-12T02:34:15;18.20;92.20
21770;DHT22;11046;49.558;8.674;2023-09-12T02:37:16;18.20;92.20
21770;DHT22;11046;49.558;8.674;2023-09-12T02:40:17;18.20;92.20
21770;DHT22;11046;49.558;8.674;2023-09-12T02:43:18;18.20;92.20
21770;DHT22;11046;49.558;8.674;2023-09-12T02:46:19;18.20;92.20
21770;DHT22;11046;49.558;8.674;2023-09-12T02:49:20;18.20;92.20
21770;DHT22;11046;49.558;8.674;2023-09-12T02:52:21;18.30;92.00
21770;DHT22;11046;49.558;8.674;2023-09-12T02:55:22;18.40;91.90
21770;DHT22;11046;49.558;8.674;2023-09-12T02:58:23;18.40;91.80
21770;DHT22;11046;49.558;8.674;2023-09-12T03:01:23;18.40;91.70
21770;DHT22;11046;49.558;8.674;2023-09-12T03:04:29;18.50;92.00
21770;DHT22;11046;49.558;8.674;2023-09-12T03:07:30;18.50;91.50
21770;DHT22;11046;49.558;8.674;2023-09-12T03:10:31;18.50;91.50
21770;DHT22;11046;49.558;8.674;2023-09-12T03:13:33;18.60;91.50
21770;DHT22;11046;49.558;8.674;2023-09-12T03:16:34;18.50;91.60
21770;DHT22;11046;49.558;8.674;2023-09-12T03:19:37;18.50;91.70
21770;DHT22;11046;49.558;8.674;2023-09-12T03:22:39;18.40;91.70
21770;DHT22;11046;49.558;8.674;2023-09-12T03:25:40;18.40;92.20
21770;DHT22;11046;49.558;8.674;2023-09-12T03:28:41;18.30;92.00
21770;DHT22;11046;49.558;8.674;2023-09-12T03:31:42;18.20;92.10
21770;DHT22;11046;49.558;8.674;2023-09-12T03:34:43;18.20;92.20
21770;DHT22;11046;49.558;8.674;2023-09-12T03:37:44;18.10;92.30
21770;DHT22;11046;49.558;8.674;2023-09-12T03:40:44;18.00;92.40
21770;DHT22;11046;49.558;8.674;2023-09-12T03:43:45;17.90;92.60
21770;DHT22;11046;49.558;8.674;2023-09-12T03:46:46;18.00;92.60
21770;DHT22;11046;49.558;8.674;2023-09-12T03:49:46;18.10;92.60
21770;DHT22;11046;49.558;8.674;2023-09-12T03:52:47;18.10;92.60
21770;DHT22;11046;49.558;8.674;2023-09-12T03:55:48;18.10;92.60
21770;DHT22;11046;49.558;8.674;2023-09-12T03:58:49;18.10;92.60
21770;DHT22;11046;49.558;8.674;2023-09-12T04:01:50;18.10;92.70
21770;DHT22;11046;49.558;8.674;2023-09-12T04:04:50;18.00;92.70
21770;DHT22;11046;49.558;8.674;2023-09-12T04:07:52;17.90;92.80
21770;DHT22;11046;49.558;8.674;2023-09-12T04:10:53;18.00;92.90
21770;DHT22;11046;49.558;8.674;2023-09-12T04:13:54;18.00;92.90
21770;DHT22;11046;49.558;8.674;2023-09-12T04:16:55;17.90;92.90
21770;DHT22;11046;49.558;8.674;2023-09-12T04:19:55;17.90;93.00
21770;DHT22;11046;49.558;8.674;2023-09-12T04:22:56;18.00;93.10
21770;DHT22;11046;49.558;8.674;2023-09-12T04:25:57;18.00;93.10
21770;DHT22;11046;49.558;8.674;2023-09-12T04:29:01;18.00;93.00
21770;DHT22;11046;49.558;8.674;2023-09-12T04:32:05;18.00;93.10
21770;DHT22;11046;49.558;8.674;2023-09-12T04:35:06;17.90;93.30
21770;DHT22;11046;49.558;8.674;2023-09-12T04:38:07;17.90;93.40
21770;DHT22;11046;49.558;8.674;2023-09-12T04:41:08;18.00;93.40
21770;DHT22;11046;49.558;8.674;2023-09-12T04:44:11;18.10;93.30
21770;DHT22;11046;49.558;8.674;2023-09-12T04:47:12;18.10;93.20
21770;DHT22;11046;49.558;8.674;2023-09-12T04:50:15;18.20;93.20
21770;DHT22;11046;49.558;8.674;2023-09-12T04:53:16;18.20;93.20
21770;DHT22;11046;49.558;8.674;2023-09-12T04:56:16;18.20;93.10
21770;DHT22;11046;49.558;8.674;2023-09-12T04:59:17;18.30;93.20
21770;DHT22;11046;49.558;8.674;2023-09-12T05:02:18;18.20;93.20
21770;DHT22;11046;49.558;8.674;2023-09-12T05:05:19;18.10;93.30
21770;DHT22;11046;49.558;8.674;2023-09-12T05:08:20;18.10;93.40
21770;DHT22;11046;49.558;8.674;2023-09-12T05:11:22;18.10;93.40
21770;DHT22;11046;49.558;8.674;2023-09-12T05:14:24;18.10;93.50
21770;DHT22;11046;49.558;8.674;2023-09-12T05:17:25;18.10;93.60
21770;DHT22;11046;49.558;8.674;2023-09-12T05:20:26;18.10;93.60
21770;DHT22;11046;49.558;8.674;2023-09-12T05:23:26;18.10;93.60
21770;DHT22;11046;49.558;8.674;2023-09-12T05:26:28;18.00;93.70
21770;DHT22;11046;49.558;8.674;2023-09-12T05:29:28;17.90;93.90
21770;DHT22;11046;49.558;8.674;2023-09-12T05:32:29;18.00;94.00
21770;DHT22;11046;49.558;8.674;2023-09-12T05:35:30;18.00;94.00
21770;DHT22;11046;49.558;8.674;2023-09-12T05:38:31;18.10;93.90
21770;DHT22;11046;49.558;8.674;2023-09-12T05:41:32;18.20;93.80
21770;DHT22;11046;49.558;8.674;2023-09-12T05:44:32;18.30;93.80
21770;DHT22;11046;49.558;8.674;2023-09-12T05:47:35;18.40;93.70
21770;DHT22;11046;49.558;8.674;2023-09-12T05:50:37;18.40;93.80
21770;DHT22;11046;49.558;8.674;2023-09-12T05:53:40;18.40;93.80
21770;DHT22;11046;49.558;8.674;2023-09-12T05:56:41;18.40;93.80
21770;DHT22;11046;49.558;8.674;2023-09-12T05:59:42;18.40;93.90
21770;DHT22;11046;49.558;8.674;2023-09-12T06:02:43;18.40;94.00
21770;DHT22;11046;49.558;8.674;2023-09-12T06:05:45;18.40;94.10
21770;DHT22;11046;49.558;8.674;2023-09-12T06:08:46;18.50;94.20
21770;DHT22;11046;49.558;8.674;2023-09-12T06:11:48;18.60;94.10
21770;DHT22;11046;49.558;8.674;2023-09-12T06:14:48;18.80;94.00
21770;DHT22;11046;49.558;8.674;2023-09-12T06:17:49;18.90;93.90
21770;DHT22;11046;49.558;8.674;2023-09-12T06:20:51;19.00;93.90
21770;DHT22;11046;49.558;8.674;2023-09-12T06:24:09;19.00;93.80
21770;DHT22;11046;49.558;8.674;2023-09-12T06:27:11;19.10;93.80
21770;DHT22;11046;49.558;8.674;2023-09-12T06:30:19;19.10;93.70
21770;DHT22;11046;49.558;8.674;2023-09-12T06:33:20;19.20;93.70
21770;DHT22;11046;49.558;8.674;2023-09-12T06:36:24;19.20;93.60
21770;DHT22;11046;49.558;8.674;2023-09-12T06:39:27;19.20;93.70
21770;DHT22;11046;49.558;8.674;2023-09-12T06:42:31;19.20;93.90
21770;DHT22;11046;49.558;8.674;2023-09-12T06:45:33;19.10;93.90
21770;DHT22;11046;49.558;8.674;2023-09-12T06:48:38;19.20;94.10
21770;DHT22;11046;49.558;8.674;2023-09-12T06:51:39;19.40;94.00
21770;DHT22;11046;49.558;8.674;2023-09-12T06:54:40;19.40;93.90
21770;DHT22;11046;49.558;8.674;2023-09-12T06:57:43;19.60;94.00
21770;DHT22;11046;49.558;8.674;2023-09-12T07:00:45;19.90;94.10
21770;DHT22;11046;49.558;8.674;2023-09-12T07:03:46;20.20;94.00
21770;DHT22;11046;49.558;8.674;2023-09-12T07:06:49;20.40;93.80
21770;DHT22;11046;49.558;8.674;2023-09-12T07:09:53;20.60;93.80
21770;DHT22;11046;49.558;8.674;2023-09-12T07:12:54;20.80;93.60
21770;DHT22;11046;49.558;8.674;2023-09-12T07:15:57;21.20;93.50
21770;DHT22;11046;49.558;8.674;2023-09-12T07:18:59;21.50;93.00
21770;DHT22;11046;49.558;8.674;2023-09-12T07:22:02;21.70;92.70
21770;DHT22;11046;49.558;8.674;2023-09-12T07:25:05;22.00;92.40
21770;DHT22;11046;49.558;8.674;2023-09-12T07:28:07;22.10;92.10
21770;DHT22;11046;49.558;8.674;2023-09-12T07:31:08;22.40;91.90
21770;DHT22;11046;49.558;8.674;2023-09-12T07:34:11;22.60;91.60
21770;DHT22;11046;49.558;8.674;2023-09-12T07:37:17;22.80;91.50
21770;DHT22;11046;49.558;8.674;2023-09-12T07:40:19;22.90;91.00
21770;DHT22;11046;49.558;8.674;2023-09-12T07:43:21;23.20;90.80
21770;DHT22;11046;49.558;8.674;2023-09-12T07:46:22;23.40;90.40
21770;DHT22;11046;49.558;8.674;2023-09-12T07:49:25;23.60;90.10
21770;DHT22;11046;49.558;8.674;2023-09-12T07:52:30;23.80;89.90
21770;DHT22;11046;49.558;8.674;2023-09-12T07:55:45;23.90;89.10
21770;DHT22;11046;49.558;8.674;2023-09-12T07:58:46;24.00;88.90
21770;DHT22;11046;49.558;8.674;2023-09-12T08:01:49;24.20;89.10
21770;DHT22;11046;49.558;8.674;2023-09-12T08:04:54;24.50;88.40
21770;DHT22;11046;49.558;8.674;2023-09-12T08:08:02;24.90;87.20
21770;DHT22;11046;49.558;8.674;2023-09-12T08:11:03;25.00;86.30
21770;DHT22;11046;49.558;8.674;2023-09-12T08:14:05;25.40;85.60
21770;DHT22;11046;49.558;8.674;2023-09-12T08:17:09;25.50;84.60
21770;DHT22;11046;49.558;8.674;2023-09-12T08:20:13;25.90;83.10
21770;DHT22;11046;49.558;8.674;2023-09-12T08:23:19;26.10;82.20
21770;DHT22;11046;49.558;8.674;2023-09-12T08:26:21;26.60;80.80
21770;DHT22;11046;49.558;8.674;2023-09-12T08:29:22;26.90;79.90
21770;DHT22;11046;49.558;8.674;2023-09-12T08:32:23;27.30;78.70
21770;DHT22;11046;49.558;8.674;2023-09-12T08:35:24;27.40;77.80
21770;DHT22;11046;49.558;8.674;2023-09-12T08:38:27;27.60;77.10
21770;DHT22;11046;49.558;8.674;2023-09-12T08:41:28;27.90;76.70
21770;DHT22;11046;49.558;8.674;2023-09-12T08:44:29;28.00;75.90
21770;DHT22;11046;49.558;8.674;2023-09-12T08:47:30;28.20;75.20
21770;DHT22;11046;49.558;8.674;2023-09-12T08:50:31;28.40;74.70
21770;DHT22;11046;49.558;8.674;2023-09-12T08:53:34;28.40;74.00
21770;DHT22;11046;49.558;8.674;2023-09-12T08:56:39;28.40;73.40
21770;DHT22;11046;49.558;8.674;2023-09-12T08:59:44;28.60;72.50
21770;DHT22;11046;49.558;8.674;2023-09-12T09:02:46;28.80;71.70
21770;DHT22;11046;49.558;8.674;2023-09-12T09:05:49;29.10;71.20
21770;DHT22;11046;49.558;8.674;2023-09-12T09:08:53;29.40;70.30
21770;DHT22;11046;49.558;8.674;2023-09-12T09:11:56;29.50;69.60
21770;DHT22;11046;49.558;8.674;2023-09-12T09:14:58;29.50;69.10
21770;DHT22;11046;49.558;8.674;2023-09-12T09:18:03;29.60;68.40
21770;DHT22;11046;49.558;8.674;2023-09-12T09:21:30;29.80;68.40
21770;DHT22;11046;49.558;8.674;2023-09-12T09:24:34;30.00;66.70
21770;DHT22;11046;49.558;8.674;2023-09-12T09:27:36;30.00;66.50
21770;DHT22;11046;49.558;8.674;2023-09-12T09:30:44;30.00;65.30
21770;DHT22;11046;49.558;8.674;2023-09-12T09:33:47;30.10;64.60
21770;DHT22;11046;49.558;8.674;2023-09-12T09:36:56;30.20;64.10
21770;DHT22;11046;49.558;8.674;2023-09-12T09:40:00;30.20;63.60
21770;DHT22;11046;49.558;8.674;2023-09-12T09:43:03;30.30;63.40
21770;DHT22;11046;49.558;8.674;2023-09-12T09:46:05;30.40;62.90
21770;DHT22;11046;49.558;8.674;2023-09-12T09:49:10;30.50;62.20
21770;DHT22;11046;49.558;8.674;2023-09-12T09:52:12;30.70;61.50
21770;DHT22;11046;49.558;8.674;2023-09-12T09:55:13;30.90;60.70
21770;DHT22;11046;49.558;8.674;2023-09-12T09:58:18;31.10;60.60
21770;DHT22;11046;49.558;8.674;2023-09-12T10:01:30;31.30;59.70
21770;DHT22;11046;49.558;8.674;2023-09-12T10:04:34;31.50;59.00
21770;DHT22;11046;49.558;8.674;2023-09-12T10:07:37;31.70;58.20
21770;DHT22;11046;49.558;8.674;2023-09-12T10:10:40;31.60;58.20
21770;DHT22;11046;49.558;8.674;2023-09-12T10:14:04;31.40;58.30
21770;DHT22;11046;49.558;8.674;2023-09-12T10:17:05;31.50;57.80
21770;DHT22;11046;49.558;8.674;2023-09-12T10:20:18;31.70;57.80
21770;DHT22;11046;49.558;8.674;2023-09-12T10:23:44;31.90;57.30
21770;DHT22;11046;49.558;8.674;2023-09-12T10:26:52;32.10;56.30
21770;DHT22;11046;49.558;8.674;2023-09-12T10:29:54;32.20;56.00
21770;DHT22;11046;49.558;8.674;2023-09-12T10:33:00;32.10;56.20
21770;DHT22;11046;49.558;8.674;2023-09-12T10:36:08;32.10;55.90
21770;DHT22;11046;49.558;8.674;2023-09-12T10:39:15;32.20;56.00
21770;DHT22;11046;49.558;8.674;2023-09-12T10:42:20;32.20;55.40
21770;DHT22;11046;49.558;8.674;2023-09-12T10:45:22;32.10;55.10
21770;DHT22;11046;49.558;8.674;2023-09-12T10:48:23;31.90;55.60
21770;DHT22;11046;49.558;8.674;2023-09-12T10:51:25;32.10;56.00
21770;DHT22;11046;49.558;8.674;2023-09-12T10:58:05;32.30;55.20
21770;DHT22;11046;49.558;8.674;2023-09-12T11:01:30;32.40;55.50
21770;DHT22;11046;49.558;8.674;2023-09-12T11:04:34;32.40;55.30
21770;DHT22;11046;49.558;8.674;2023-09-12T11:10:41;32.30;55.20
21770;DHT22;11046;49.558;8.674;2023-09-12T11:13:43;32.30;54.80
21770;DHT22;11046;49.558;8.674;2023-09-12T11:20:14;31.50;55.20
21770;DHT22;11046;49.558;8.674;2023-09-12T11:23:16;31.20;55.80
21770;DHT22;11046;49.558;8.674;2023-09-12T11:26:16;31.20;56.10
21770;DHT22;11046;49.558;8.674;2023-09-12T11:29:17;31.20;56.90
21770;DHT22;11046;49.558;8.674;2023-09-12T11:32:32;31.50;56.70
21770;DHT22;11046;49.558;8.674;2023-09-12T11:35:37;31.90;56.30
21770;DHT22;11046;49.558;8.674;2023-09-12T11:38:41;32.20;55.70
21770;DHT22;11046;49.558;8.674;2023-09-12T11:41:42;32.60;55.20
21770;DHT22;11046;49.558;8.674;2023-09-12T11:44:46;32.70;55.10
21770;DHT22;11046;49.558;8.674;2023-09-12T11:47:47;32.90;55.40
21770;DHT22;11046;49.558;8.674;2023-09-12T11:50:55;33.10;55.00
21770;DHT22;11046;49.558;8.674;2023-09-12T11:53:56;33.40;54.30
21770;DHT22;11046;49.558;8.674;2023-09-12T11:57:02;33.70;53.90
21770;DHT22;11046;49.558;8.674;2023-09-12T12:00:03;33.80;53.60
21770;DHT22;11046;49.558;8.674;2023-09-12T12:03:17;33.70;53.10
21770;DHT22;11046;49.558;8.674;2023-09-12T12:06:18;33.70;52.90
21770;DHT22;11046;49.558;8.674;2023-09-12T12:09:19;33.70;53.10
21770;DHT22;11046;49.558;8.674;2023-09-12T12:12:20;33.70;52.70
21770;DHT22;11046;49.558;8.674;2023-09-12T12:15:24;33.60;52.50
21770;DHT22;11046;49.558;8.674;2023-09-12T12:18:26;33.60;52.30
21770;DHT22;11046;49.558;8.674;2023-09-12T12:21:28;33.60;52.40
21770;DHT22;11046;49.558;8.674;2023-09-12T12:24:40;33.50;52.10
21770;DHT22;11046;49.558;8.674;2023-09-12T12:27:43;33.50;51.80
21770;DHT22;11046;49.558;8.674;2023-09-12T12:30:45;33.60;52.50
21770;DHT22;11046;49.558;8.674;2023-09-12T12:33:49;33.60;52.30
21770;DHT22;11046;49.558;8.674;2023-09-12T12:36:50;33.70;52.30
21770;DHT22;11046;49.558;8.674;2023-09-12T12:39:50;33.80;51.90
21770;DHT22;11046;49.558;8.674;2023-09-12T12:42:51;33.80;51.80
21770;DHT22;11046;49.558;8.674;2023-09-12T12:45:58;33.80;52.90
21770;DHT22;11046;49.558;8.674;2023-09-12T12:49:05;33.80;51.90
21770;DHT22;11046;49.558;8.674;2023-09-12T12:52:11;33.70;52.20
21770;DHT22;11046;49.558;8.674;2023-09-12T12:55:13;33.70;52.50
21770;DHT22;11046;49.558;8.674;2023-09-12T12:58:23;33.80;52.70
21770;DHT22;11046;49.558;8.674;2023-09-12T13:01:27;33.90;51.80
21770;DHT22;11046;49.558;8.674;2023-09-12T13:04:37;33.60;52.40
21770;DHT22;11046;49.558;8.674;2023-09-12T13:07:39;33.30;52.60
21770;DHT22;11046;49.558;8.674;2023-09-12T13:10:40;33.40;52.50
21770;DHT22;11046;49.558;8.674;2023-09-12T13:13:44;33.40;52.40
21770;DHT22;11046;49.558;8.674;2023-09-12T13:16:45;33.40;52.20
21770;DHT22;11046;49.558;8.674;2023-09-12T13:19:45;33.40;52.70
21770;DHT22;11046;49.558;8.674;2023-09-12T13:22:46;33.60;52.30
21770;DHT22;11046;49.558;8.674;2023-09-12T13:25:46;33.70;52.00
21770;DHT22;11046;49.558;8.674;2023-09-12T13:28:47;33.80;51.50
21770;DHT22;11046;49.558;8.674;2023-09-12T13:31:49;33.70;51.00
21770;DHT22;11046;49.558;8.674;2023-09-12T13:34:50;33.90;51.00
21770;DHT22;11046;49.558;8.674;2023-09-12T13:37:51;33.90;50.90
21770;DHT22;11046;49.558;8.674;2023-09-12T13:40:51;33.90;50.50
21770;DHT22;11046;49.558;8.674;2023-09-12T13:43:53;34.10;50.40
21770;DHT22;11046;49.558;8.674;2023-09-12T13:46:54;34.10;50.00
21770;DHT22;11046;49.558;8.674;2023-09-12T13:49:54;34.10;50.40
21770;DHT22;11046;49.558;8.674;2023-09-12T13:53:01;34.30;49.90
21770;DHT22;11046;49.558;8.674;2023-09-12T13:56:06;34.30;49.40
21770;DHT22;11046;49.558;8.674;2023-09-12T13:59:10;34.40;49.40
21770;DHT22;11046;49.558;8.674;2023-09-12T14:02:12;34.60;48.50
21770;DHT22;11046;49.558;8.674;2023-09-12T14:05:12;34.80;48.30
21770;DHT22;11046;49.558;8.674;2023-09-12T14:08:13;35.00;48.60
21770;DHT22;11046;49.558;8.674;2023-09-12T14:11:20;35.20;47.50
21770;DHT22;11046;49.558;8.674;2023-09-12T14:14:23;35.30;47.30
21770;DHT22;11046;49.558;8.674;2023-09-12T14:17:26;35.10;47.00
21770;DHT22;11046;49.558;8.674;2023-09-12T14:20:31;34.60;47.20
21770;DHT22;11046;49.558;8.674;2023-09-12T14:23:35;34.20;47.40
21770;DHT22;11046;49.558;8.674;2023-09-12T14:26:36;33.80;47.80
21770;DHT22;11046;49.558;8.674;2023-09-12T14:29:38;33.40;48.30
21770;DHT22;11046;49.558;8.674;2023-09-12T14:32:40;33.20;48.90
21770;DHT22;11046;49.558;8.674;2023-09-12T14:35:44;33.00;49.00
21770;DHT22;11046;49.558;8.674;2023-09-12T14:38:45;32.90;49.10
21770;DHT22;11046;49.558;8.674;2023-09-12T14:41:47;32.70;49.30
21770;DHT22;11046;49.558;8.674;2023-09-12T14:44:53;32.60;50.30
21770;DHT22;11046;49.558;8.674;2023-09-12T14:47:53;32.50;49.70
21770;DHT22;11046;49.558;8.674;2023-09-12T14:50:56;32.50;50.10
21770;DHT22;11046;49.558;8.674;2023-09-12T14:53:56;32.50;50.00
21770;DHT22;11046;49.558;8.674;2023-09-12T14:56:59;32.50;49.60
21770;DHT22;11046;49.558;8.674;2023-09-12T15:00:00;32.40;49.90
21770;DHT22;11046;49.558;8.674;2023-09-12T15:03:05;32.20;49.70
21770;DHT22;11046;49.558;8.674;2023-09-12T15:06:06;32.10;49.10
21770;DHT22;11046;49.558;8.674;2023-09-12T15:09:10;32.00;49.40
21770;DHT22;11046;49.558;8.674;2023-09-12T15:12:11;31.90;49.70
21770;DHT22;11046;49.558;8.674;2023-09-12T15:15:13;31.80;50.40
21770;DHT22;11046;49.558;8.674;2023-09-12T15:18:15;31.50;50.30
21770;DHT22;11046;49.558;8.674;2023-09-12T15:21:16;31.40;50.70
21770;DHT22;11046;49.558;8.674;2023-09-12T15:24:17;31.30;51.10
21770;DHT22;11046;49.558;8.674;2023-09-12T15:27:22;31.20;51.20
21770;DHT22;11046;49.558;8.674;2023-09-12T15:30:55;31.10;52.10
21770;DHT22;11046;49.558;8.674;2023-09-12T15:33:58;31.20;52.80
21770;DHT22;11046;49.558;8.674;2023-09-12T15:40:10;31.10;52.20
21770;DHT22;11046;49.558;8.674;2023-09-12T15:43:11;31.00;52.30
21770;DHT22;11046;49.558;8.674;2023-09-12T15:46:12;30.80;52.20
21770;DHT22;11046;49.558;8.674;2023-09-12T15:49:12;30.70;52.20
21770;DHT22;11046;49.558;8.674;2023-09-12T15:52:14;30.60;52.10
21770;DHT22;11046;49.558;8.674;2023-09-12T15:55:15;30.50;51.80
21770;DHT22;11046;49.558;8.674;2023-09-12T15:58:16;30.40;52.50
21770;DHT22;11046;49.558;8.674;2023-09-12T16:01:17;30.40;51.90
21770;DHT22;11046;49.558;8.674;2023-09-12T16:04:17;30.40;52.30
21770;DHT22;11046;49.558;8.674;2023-09-12T16:07:18;30.30;52.50
21770;DHT22;11046;49.558;8.674;2023-09-12T16:10:19;30.10;53.30
21770;DHT22;11046;49.558;8.674;2023-09-12T16:13:22;30.10;53.80
21770;DHT22;11046;49.558;8.674;2023-09-12T16:16:23;30.00;54.00
21770;DHT22;11046;49.558;8.674;2023-09-12T16:19:27;29.80;53.90
21770;DHT22;11046;49.558;8.674;2023-09-12T16:22:29;29.80;54.50
21770;DHT22;11046;49.558;8.674;2023-09-12T16:25:31;29.60;55.10
21770;DHT22;11046;49.558;8.674;2023-09-12T16:28:32;29.50;55.80
21770;DHT22;11046;49.558;8.674;2023-09-12T16:31:33;29.30;56.60
21770;DHT22;11046;49.558;8.674;2023-09-12T16:34:35;29.00;58.00
21770;DHT22;11046;49.558;8.674;2023-09-12T16:37:36;28.80;57.90
21770;DHT22;11046;49.558;8.674;2023-09-12T16:40:38;28.50;58.70
21770;DHT22;11046;49.558;8.674;2023-09-12T16:43:39;28.20;59.30
21770;DHT22;11046;49.558;8.674;2023-09-12T16:46:40;28.10;60.00
21770;DHT22;11046;49.558;8.674;2023-09-12T16:49:41;27.90;60.70
21770;DHT22;11046;49.558;8.674;2023-09-12T16:52:41;27.70;61.70
21770;DHT22;11046;49.558;8.674;2023-09-12T16:55:42;27.50;62.30
21770;DHT22;11046;49.558;8.674;2023-09-12T16:58:43;27.30;62.50
21770;DHT22;11046;49.558;8.674;2023-09-12T17:01:44;27.30;62.50
21770;DHT22;11046;49.558;8.674;2023-09-12T17:04:46;27.20;62.40
21770;DHT22;11046;49.558;8.674;2023-09-12T17:07:46;27.10;62.70
21770;DHT22;11046;49.558;8.674;2023-09-12T17:10:48;27.10;63.00
21770;DHT22;11046;49.558;8.674;2023-09-12T17:13:49;27.00;63.50
21770;DHT22;11046;49.558;8.674;2023-09-12T17:16:52;26.90;63.90
21770;DHT22;11046;49.558;8.674;2023-09-12T17:19:53;26.80;64.00
21770;DHT22;11046;49.558;8.674;2023-09-12T17:22:54;26.70;64.20
21770;DHT22;11046;49.558;8.674;2023-09-12T17:25:55;26.50;65.00
21770;DHT22;11046;49.558;8.674;2023-09-12T17:28:55;26.40;65.60
21770;DHT22;11046;49.558;8.674;2023-09-12T17:32:15;26.30;66.10
21770;DHT22;11046;49.558;8.674;2023-09-12T17:35:15;26.20;67.00
21770;DHT22;11046;49.558;8.674;2023-09-12T17:38:17;26.10;66.80
21770;DHT22;11046;49.558;8.674;2023-09-12T17:41:19;26.00;67.30
21770;DHT22;11046;49.558;8.674;2023-09-12T17:44:20;25.90;68.00
21770;DHT22;11046;49.558;8.674;2023-09-12T17:47:22;25.80;68.30
21770;DHT22;11046;49.558;8.674;2023-09-12T17:50:24;25.60;68.70
21770;DHT22;11046;49.558;8.674;2023-09-12T17:53:26;25.60;69.00
21770;DHT22;11046;49.558;8.674;2023-09-12T17:56:29;25.50;69.30
21770;DHT22;11046;49.558;8.674;2023-09-12T17:59:30;25.50;69.60
21770;DHT22;11046;49.558;8.674;2023-09-12T18:02:33;25.40;69.80
21770;DHT22;11046;49.558;8.674;2023-09-12T18:05:34;25.30;70.10
21770;DHT22;11046;49.558;8.674;2023-09-12T18:08:39;25.20;70.60
21770;DHT22;11046;49.558;8.674;2023-09-12T18:11:39;25.10;70.80
21770;DHT22;11046;49.558;8.674;2023-09-12T18:14:40;25.00;71.10
21770;DHT22;11046;49.558;8.674;2023-09-12T18:17:41;25.00;71.40
21770;DHT22;11046;49.558;8.674;2023-09-12T18:20:43;25.00;71.40
21770;DHT22;11046;49.558;8.674;2023-09-12T18:23:46;25.00;71.50
21770;DHT22;11046;49.558;8.674;2023-09-12T18:26:47;25.00;71.70
21770;DHT22;11046;49.558;8.674;2023-09-12T18:29:48;24.90;71.90
21770;DHT22;11046;49.558;8.674;2023-09-12T18:32:49;24.80;72.40
21770;DHT22;11046;49.558;8.674;2023-09-12T18:35:50;24.70;72.80
21770;DHT22;11046;49.558;8.674;2023-09-12T18:38:50;24.60;73.50
21770;DHT22;11046;49.558;8.674;2023-09-12T18:41:52;24.50;73.90
21770;DHT22;11046;49.558;8.674;2023-09-12T18:44:52;24.30;74.30
21770;DHT22;11046;49.558;8.674;2023-09-12T18:47:55;24.20;74.80
21770;DHT22;11046;49.558;8.674;2023-09-12T18:50:59;24.10;75.50
21770;DHT22;11046;49.558;8.674;2023-09-12T18:54:01;24.00;75.90
21770;DHT22;11046;49.558;8.674;2023-09-12T18:57:10;24.00;75.80
21770;DHT22;11046;49.558;8.674;2023-09-12T19:00:11;24.10;76.30
21770;DHT22;11046;49.558;8.674;2023-09-12T19:03:16;24.10;76.00
21770;DHT22;11046;49.558;8.674;2023-09-12T19:06:21;24.10;76.10
21770;DHT22;11046;49.558;8.674;2023-09-12T19:09:23;24.00;76.60
21770;DHT22;11046;49.558;8.674;2023-09-12T19:12:24;24.00;77.00
21770;DHT22;11046;49.558;8.674;2023-09-12T19:15:25;23.80;77.80
21770;DHT22;11046;49.558;8.674;2023-09-12T19:18:28;23.80;78.00
21770;DHT22;11046;49.558;8.674;2023-09-12T19:21:29;23.60;78.50
21770;DHT22;11046;49.558;8.674;2023-09-12T19:24:31;23.60;78.80
21770;DHT22;11046;49.558;8.674;2023-09-12T19:27:32;23.60;79.10
21770;DHT22;11046;49.558;8.674;2023-09-12T19:30:33;23.40;79.40
21770;DHT22;11046;49.558;8.674;2023-09-12T19:33:34;23.40;79.90